createdAt,value
2019-01-29T00:00:01.132Z,36.30
2019-01-29T00:02:34.435Z,37.93
2019-01-29T00:05:05.728Z,38.03
2019-01-29T00:07:37.652Z,38.57
2019-01-29T00:10:09.072Z,36.20
2019-01-29T00:12:39.312Z,38.33
2019-01-29T00:15:11.670Z,37.50
2019-01-29T00:17:42.228Z,36.13
2019-01-29T00:20:13.220Z,40.50
2019-01-29T00:22:44.817Z,39.17
2019-01-29T00:25:15.023Z,39.10
2019-01-29T00:27:46.799Z,41.00
2019-01-29T00:30:17.017Z,41.20
2019-01-29T00:32:47.255Z,38.07
2019-01-29T00:35:17.469Z,36.57
2019-01-29T00:37:47.694Z,34.67
2019-01-29T00:40:19.121Z,36.77
2019-01-29T00:42:49.356Z,36.00
2019-01-29T00:45:19.561Z,34.93
2019-01-29T00:47:49.806Z,34.73
2019-01-29T00:50:20.014Z,31.03
2019-01-29T00:52:50.255Z,30.13
2019-01-29T00:55:20.461Z,30.07
2019-01-29T00:57:51.622Z,28.80
2019-01-29T01:00:23.770Z,28.07
2019-01-29T01:02:55.134Z,29.13
2019-01-29T01:05:25.342Z,28.33
2019-01-29T01:07:55.582Z,27.03
2019-01-29T01:10:25.787Z,26.90
2019-01-29T01:12:56.020Z,29.10
2019-01-29T01:15:27.153Z,28.07
2019-01-29T01:17:57.403Z,27.03
2019-01-29T01:20:27.608Z,27.20
2019-01-29T01:22:57.834Z,27.10
2019-01-29T01:25:28.040Z,27.37
2019-01-29T01:27:58.286Z,29.40
2019-01-29T01:30:28.501Z,27.83
2019-01-29T01:32:58.720Z,27.63
2019-01-29T01:35:28.936Z,28.30
2019-01-29T01:37:59.167Z,28.60
2019-01-29T01:40:29.384Z,28.33
2019-01-29T01:42:59.613Z,29.03
2019-01-29T01:45:29.818Z,28.27
2019-01-29T01:48:00.061Z,28.50
2019-01-29T01:50:30.270Z,28.70
2019-01-29T01:53:00.502Z,28.60
2019-01-29T01:55:30.705Z,28.53
2019-01-29T01:58:00.943Z,27.33
2019-01-29T02:00:31.165Z,28.50
2019-01-29T02:03:01.402Z,28.67
2019-01-29T02:05:31.608Z,26.83
2019-01-29T02:08:01.841Z,27.30
2019-01-29T02:10:32.056Z,27.67
2019-01-29T02:13:02.284Z,27.93
2019-01-29T02:15:32.493Z,27.20
2019-01-29T02:18:03.602Z,25.10
2019-01-29T02:20:33.849Z,26.30
2019-01-29T02:23:08.148Z,26.40
2019-01-29T02:25:36.153Z,26.23
2019-01-29T02:28:06.651Z,26.27
2019-01-29T02:30:36.896Z,26.67
2019-01-29T02:33:07.135Z,31.17
2019-01-29T02:35:37.346Z,36.67
2019-01-29T02:38:07.579Z,33.77
2019-01-29T02:40:37.784Z,27.50
2019-01-29T02:43:08.026Z,20.93
2019-01-29T02:45:38.233Z,19.40
2019-01-29T02:48:08.487Z,21.90
2019-01-29T02:50:38.692Z,23.10
2019-01-29T02:53:17.787Z,21.80
2019-01-29T02:55:40.960Z,20.97
2019-01-29T02:58:11.524Z,17.73
2019-01-29T03:00:41.737Z,17.07
2019-01-29T03:03:11.962Z,16.23
2019-01-29T03:05:42.170Z,14.70
2019-01-29T03:08:13.021Z,12.57
2019-01-29T03:10:44.139Z,14.47
2019-01-29T03:13:14.382Z,14.10
2019-01-29T03:15:44.595Z,13.10
2019-01-29T03:18:14.822Z,11.67
2019-01-29T03:20:45.027Z,11.40
2019-01-29T03:23:15.269Z,11.87
2019-01-29T03:25:45.475Z,11.97
2019-01-29T03:28:15.705Z,12.03
2019-01-29T03:30:45.919Z,11.10
2019-01-29T03:33:16.185Z,10.83
2019-01-29T03:35:46.364Z,10.87
2019-01-29T03:38:16.603Z,9.57
2019-01-29T03:40:46.811Z,11.13
2019-01-29T03:43:17.053Z,10.67
2019-01-29T03:45:47.260Z,10.40
2019-01-29T03:48:17.495Z,10.90
2019-01-29T03:50:47.693Z,10.83
2019-01-29T03:53:18.860Z,10.00
2019-01-29T03:55:49.065Z,10.57
2019-01-29T03:58:20.240Z,9.67
2019-01-29T04:00:50.436Z,9.87
2019-01-29T04:03:20.685Z,9.30
2019-01-29T04:05:50.879Z,8.90
2019-01-29T04:08:21.120Z,7.03
2019-01-29T04:10:51.327Z,7.43
2019-01-29T04:13:21.556Z,8.53
2019-01-29T04:15:51.761Z,7.17
2019-01-29T04:18:22.008Z,7.10
2019-01-29T04:20:52.216Z,6.80
2019-01-29T04:23:22.453Z,7.70
2019-01-29T04:25:52.653Z,6.73
2019-01-29T04:28:22.893Z,6.87
2019-01-29T04:30:53.097Z,6.53
2019-01-29T04:33:23.335Z,7.33
2019-01-29T04:35:55.175Z,6.70
2019-01-29T04:38:25.400Z,6.13
2019-01-29T04:40:56.752Z,6.47
2019-01-29T04:43:26.992Z,6.40
2019-01-29T04:45:57.195Z,7.03
2019-01-29T04:48:27.437Z,7.00
2019-01-29T04:50:57.640Z,7.67
2019-01-29T04:53:27.885Z,7.10
2019-01-29T04:55:59.706Z,7.57
2019-01-29T04:58:30.783Z,6.20
2019-01-29T05:01:00.997Z,6.43
2019-01-29T05:03:31.238Z,6.67
2019-01-29T05:06:01.435Z,7.80
2019-01-29T05:08:32.603Z,7.97
2019-01-29T05:11:02.809Z,8.43
2019-01-29T05:13:33.051Z,9.83
2019-01-29T05:16:20.209Z,7.57
2019-01-29T05:19:29.709Z,6.73
2019-01-29T05:21:59.918Z,5.63
2019-01-29T05:24:31.480Z,6.63
2019-01-29T05:27:01.888Z,7.77
2019-01-29T05:29:32.139Z,9.27
2019-01-29T05:32:03.869Z,9.17
2019-01-29T05:34:34.117Z,9.33
2019-01-29T05:37:04.316Z,10.77
2019-01-29T05:39:34.561Z,10.00
2019-01-29T05:42:04.766Z,11.93
2019-01-29T05:44:35.006Z,9.50
2019-01-29T05:47:05.215Z,11.30
2019-01-29T05:49:35.464Z,11.33
2019-01-29T05:52:06.582Z,10.17
2019-01-29T05:54:37.744Z,9.10
2019-01-29T05:57:08.028Z,10.63
2019-01-29T05:59:38.543Z,9.30
2019-01-29T06:02:09.324Z,14.03
2019-01-29T06:04:40.780Z,13.43
2019-01-29T06:07:11.909Z,11.87
2019-01-29T06:09:43.073Z,10.57
2019-01-29T06:12:14.194Z,9.63
2019-01-29T06:14:47.825Z,9.20
2019-01-29T06:17:27.203Z,9.10
2019-01-29T06:19:52.870Z,7.70
2019-01-29T06:22:24.362Z,8.10
2019-01-29T06:24:56.692Z,8.97
2019-01-29T06:27:27.847Z,9.70
2019-01-29T06:29:58.974Z,9.93
2019-01-29T06:32:30.411Z,9.23
2019-01-29T06:35:01.574Z,9.77
2019-01-29T06:37:32.696Z,9.90
2019-01-29T06:40:04.027Z,11.17
2019-01-29T06:42:34.366Z,9.03
2019-01-29T06:45:07.808Z,9.93
2019-01-29T06:47:38.194Z,11.33
2019-01-29T06:50:15.054Z,15.33
2019-01-29T06:52:45.398Z,21.67
2019-01-29T06:55:19.731Z,11.37
2019-01-29T06:57:55.368Z,11.63
2019-01-29T07:00:29.855Z,14.00
2019-01-29T07:03:00.749Z,14.83
2019-01-29T07:05:32.205Z,17.93
2019-01-29T07:08:03.649Z,13.30
2019-01-29T07:10:34.809Z,11.27
2019-01-29T07:13:05.306Z,11.67
2019-01-29T07:15:53.366Z,13.83
2019-01-29T07:18:40.087Z,10.37
2019-01-29T07:21:12.264Z,9.37
2019-01-29T07:23:42.781Z,12.17
2019-01-29T07:26:13.929Z,9.87
2019-01-29T07:28:45.064Z,8.87
2019-01-29T07:31:16.247Z,9.90
2019-01-29T07:33:46.494Z,9.67
2019-01-29T07:36:18.325Z,9.93
2019-01-29T07:38:48.534Z,9.60
2019-01-29T07:41:18.776Z,9.50
2019-01-29T07:43:48.981Z,10.07
2019-01-29T07:46:19.210Z,10.63
2019-01-29T07:48:49.425Z,19.83
2019-01-29T07:51:19.657Z,15.40
2019-01-29T07:53:49.884Z,16.93
2019-01-29T07:56:20.111Z,13.33
2019-01-29T07:58:50.328Z,13.37
2019-01-29T08:01:20.578Z,10.37
2019-01-29T08:03:50.813Z,13.03
2019-01-29T08:06:21.073Z,9.80
2019-01-29T08:08:51.299Z,10.63
2019-01-29T08:11:21.530Z,9.03
2019-01-29T08:13:51.812Z,9.67
2019-01-29T08:16:22.986Z,9.87
2019-01-29T08:18:54.119Z,10.20
2019-01-29T08:21:25.282Z,11.20
2019-01-29T08:23:56.395Z,13.00
2019-01-29T08:26:27.890Z,12.57
2019-01-29T08:28:59.293Z,9.97
2019-01-29T08:31:30.463Z,10.27
2019-01-29T08:34:00.701Z,12.20
2019-01-29T08:36:32.141Z,13.63
2019-01-29T08:39:05.265Z,10.83
2019-01-29T08:41:35.687Z,11.40
2019-01-29T08:44:07.079Z,11.10
2019-01-29T08:46:37.360Z,11.27
2019-01-29T08:49:08.760Z,8.73
2019-01-29T08:51:39.913Z,7.97
2019-01-29T08:54:12.274Z,8.00
2019-01-29T08:56:43.469Z,8.67
2019-01-29T08:59:15.800Z,7.57
2019-01-29T09:01:49.102Z,8.13
2019-01-29T09:04:20.243Z,7.37
2019-01-29T09:06:51.416Z,7.33
2019-01-29T09:09:22.845Z,6.33
2019-01-29T09:11:53.086Z,7.73
2019-01-29T09:14:24.523Z,8.00
2019-01-29T09:16:54.755Z,8.77
2019-01-29T09:19:24.971Z,8.20
2019-01-29T09:21:57.348Z,9.57
2019-01-29T09:24:27.607Z,8.67
2019-01-29T09:26:59.028Z,15.70
2019-01-29T09:29:30.467Z,8.70
2019-01-29T09:32:01.944Z,9.97
2019-01-29T09:34:32.188Z,7.10
2019-01-29T09:37:03.604Z,10.67
2019-01-29T09:39:35.013Z,7.77
2019-01-29T09:42:07.270Z,9.13
2019-01-29T09:44:37.617Z,8.07
2019-01-29T09:47:09.261Z,7.87
2019-01-29T09:49:39.600Z,8.20
2019-01-29T09:52:10.751Z,9.10
2019-01-29T09:54:41.880Z,6.97
2019-01-29T09:57:14.897Z,6.77
2019-01-29T09:59:46.016Z,7.40
2019-01-29T10:02:18.415Z,9.03
2019-01-29T10:04:49.835Z,9.60
2019-01-29T10:07:21.001Z,6.70
2019-01-29T10:09:52.122Z,7.67
2019-01-29T10:12:23.294Z,8.00
2019-01-29T10:14:54.403Z,10.40
2019-01-29T10:17:26.036Z,6.27
2019-01-29T10:20:02.821Z,9.73
2019-01-29T10:22:30.923Z,8.70
2019-01-29T10:25:03.667Z,5.83
2019-01-29T10:27:35.999Z,4.90
2019-01-29T10:30:10.648Z,7.73
2019-01-29T10:32:41.063Z,7.30
2019-01-29T10:35:23.309Z,5.73
2019-01-29T10:37:54.702Z,7.27
2019-01-29T10:40:27.456Z,6.00
2019-01-29T10:42:58.887Z,6.70
2019-01-29T10:45:31.022Z,5.87
2019-01-29T10:48:04.011Z,8.97
2019-01-29T10:50:34.547Z,5.53
2019-01-29T10:53:06.653Z,6.83
2019-01-29T10:55:47.428Z,9.10
2019-01-29T10:58:18.916Z,6.27
2019-01-29T11:00:50.036Z,5.47
2019-01-29T11:03:21.532Z,5.63
2019-01-29T11:05:52.933Z,6.43
2019-01-29T11:08:29.373Z,4.80
2019-01-29T11:11:01.216Z,5.60
2019-01-29T11:13:33.760Z,6.80
2019-01-29T11:16:04.037Z,8.57
2019-01-29T11:18:39.331Z,5.67
2019-01-29T11:21:10.764Z,6.03
2019-01-29T11:23:46.279Z,6.47
2019-01-29T11:26:23.156Z,5.57
2019-01-29T11:28:54.148Z,6.00
2019-01-29T11:31:24.363Z,5.30
2019-01-29T11:33:54.596Z,6.63
2019-01-29T11:36:26.229Z,8.10
2019-01-29T11:38:58.110Z,7.17
2019-01-29T11:41:28.309Z,13.07
2019-01-29T11:44:00.573Z,9.50
2019-01-29T11:46:30.610Z,10.47
2019-01-29T11:49:02.723Z,11.00
2019-01-29T11:51:32.867Z,9.47
2019-01-29T11:54:03.115Z,10.10
2019-01-29T11:56:33.324Z,11.07
2019-01-29T11:59:05.565Z,10.97
2019-01-29T12:01:37.448Z,11.27
2019-01-29T12:04:09.848Z,10.47
2019-01-29T12:06:41.283Z,15.30
2019-01-29T12:09:11.527Z,9.70
2019-01-29T12:11:42.964Z,11.07
2019-01-29T12:14:13.208Z,9.70
2019-01-29T12:16:43.427Z,10.33
2019-01-29T12:19:13.657Z,13.10
2019-01-29T12:21:45.077Z,9.07
2019-01-29T12:24:19.818Z,11.13
2019-01-29T12:26:56.296Z,10.93
2019-01-29T12:29:26.528Z,11.73
2019-01-29T12:31:57.953Z,8.47
2019-01-29T12:34:29.434Z,13.97
2019-01-29T12:37:02.834Z,9.40
2019-01-29T12:39:37.911Z,10.43
2019-01-29T12:42:09.290Z,26.27
2019-01-29T12:44:39.525Z,31.20
2019-01-29T12:47:10.964Z,20.73
2019-01-29T12:49:44.334Z,21.60
2019-01-29T12:52:17.332Z,16.87
2019-01-29T12:54:49.320Z,15.23
2019-01-29T12:57:22.812Z,9.80
2019-01-29T12:59:53.146Z,8.97
2019-01-29T13:02:23.361Z,11.30
2019-01-29T13:04:57.045Z,13.20
2019-01-29T13:07:30.960Z,16.47
2019-01-29T13:10:01.396Z,12.57
2019-01-29T13:12:32.520Z,14.70
2019-01-29T13:15:06.266Z,10.57
2019-01-29T13:17:36.658Z,7.40
2019-01-29T13:20:10.400Z,7.00
2019-01-29T13:22:40.783Z,5.47
2019-01-29T13:25:12.962Z,5.37
2019-01-29T13:27:44.305Z,5.20
2019-01-29T13:30:26.613Z,6.80
2019-01-29T13:32:57.967Z,7.57
2019-01-29T13:35:33.267Z,16.27
2019-01-29T13:38:03.621Z,6.83
2019-01-29T13:40:34.786Z,6.80
2019-01-29T13:43:05.731Z,6.23
2019-01-29T13:45:37.522Z,5.20
2019-01-29T13:48:10.678Z,6.80
2019-01-29T13:50:44.975Z,10.23
2019-01-29T13:53:16.340Z,20.83
2019-01-29T13:55:46.587Z,12.27
2019-01-29T13:58:16.803Z,12.90
2019-01-29T14:00:47.029Z,9.73
2019-01-29T14:03:18.634Z,6.63
2019-01-29T14:05:49.910Z,8.60
2019-01-29T14:08:20.106Z,8.53
2019-01-29T14:10:50.423Z,12.73
2019-01-29T14:13:28.270Z,11.60
2019-01-29T14:15:58.521Z,10.23
2019-01-29T14:18:30.844Z,11.07
2019-01-29T14:21:01.086Z,9.70
2019-01-29T14:23:31.310Z,12.57
2019-01-29T14:26:03.472Z,11.23
2019-01-29T14:28:37.164Z,14.20
2019-01-29T14:31:07.547Z,25.70
2019-01-29T14:33:41.863Z,19.00
2019-01-29T14:36:22.734Z,15.63
2019-01-29T14:39:21.184Z,22.40
2019-01-29T14:41:54.172Z,27.80
2019-01-29T14:44:24.411Z,88.63
2019-01-29T14:46:55.872Z,22.23
2019-01-29T14:49:28.087Z,45.90
2019-01-29T14:51:59.984Z,21.10
2019-01-29T14:54:31.429Z,19.17
2019-01-29T14:57:01.701Z,125.73
2019-01-29T14:59:33.106Z,57.80
2019-01-29T15:02:03.365Z,11.37
2019-01-29T15:04:33.603Z,11.83
2019-01-29T15:07:04.720Z,16.87
2019-01-29T15:09:37.063Z,11.33
2019-01-29T15:12:07.376Z,16.97
2019-01-29T15:14:37.827Z,14.30
2019-01-29T15:17:10.261Z,9.57
2019-01-29T15:19:41.634Z,22.00
2019-01-29T15:22:11.890Z,15.07
2019-01-29T15:24:43.310Z,15.60
2019-01-29T15:27:13.558Z,22.50
2019-01-29T15:29:47.332Z,18.00
2019-01-29T15:32:21.350Z,18.20
2019-01-29T15:34:55.789Z,21.37
2019-01-29T15:37:26.120Z,16.47
2019-01-29T15:39:57.561Z,16.27
2019-01-29T15:42:27.802Z,17.93
2019-01-29T15:44:59.214Z,19.77
2019-01-29T15:47:32.245Z,26.80
2019-01-29T15:50:06.591Z,28.83
2019-01-29T15:52:36.987Z,33.87
2019-01-29T15:55:11.605Z,33.07
2019-01-29T15:57:42.095Z,42.80
2019-01-29T16:00:18.520Z,35.30
2019-01-29T16:02:50.600Z,35.17
2019-01-29T16:05:26.268Z,33.53
2019-01-29T16:07:57.365Z,29.83
2019-01-29T16:10:45.541Z,24.90
2019-01-29T16:13:20.678Z,30.53
2019-01-29T16:15:59.257Z,50.10
2019-01-29T16:18:30.699Z,74.67
2019-01-29T16:21:01.339Z,112.47
2019-01-29T16:23:35.066Z,77.23
2019-01-29T16:26:05.885Z,100.27
2019-01-29T16:28:36.309Z,78.10
2019-01-29T16:31:07.757Z,68.37
2019-01-29T16:33:38.742Z,61.87
2019-01-29T16:36:09.131Z,45.70
2019-01-29T16:38:41.506Z,49.23
2019-01-29T16:41:12.945Z,54.13
2019-01-29T16:43:44.422Z,47.83
2019-01-29T16:46:14.681Z,47.20
2019-01-29T16:48:45.304Z,33.87
2019-01-29T16:51:17.301Z,36.03
2019-01-29T16:53:47.745Z,36.30
2019-01-29T16:56:19.167Z,33.83
2019-01-29T16:58:49.446Z,29.63
2019-01-29T17:01:19.673Z,24.33
2019-01-29T17:03:51.468Z,24.83
2019-01-29T17:06:21.948Z,42.50
2019-01-29T17:08:52.488Z,47.77
2019-01-29T17:11:22.738Z,53.97
2019-01-29T17:13:53.228Z,58.53
2019-01-29T17:16:27.450Z,66.83
2019-01-29T17:18:58.903Z,58.23
2019-01-29T17:21:29.125Z,46.07
2019-01-29T17:24:00.569Z,60.53
2019-01-29T17:26:31.979Z,79.80
2019-01-29T17:29:02.359Z,76.90
2019-01-29T17:31:34.603Z,73.13
2019-01-29T17:34:06.070Z,76.60
2019-01-29T17:36:37.513Z,76.00
2019-01-29T17:39:09.780Z,80.03
2019-01-29T17:41:40.112Z,85.83
2019-01-29T17:44:10.424Z,88.73
2019-01-29T17:46:42.696Z,91.97
2019-01-29T17:49:15.245Z,87.67
2019-01-29T17:51:48.164Z,93.13
2019-01-29T17:54:20.131Z,82.57
2019-01-29T17:56:50.764Z,74.10
2019-01-29T17:59:21.222Z,73.70
2019-01-29T18:01:54.322Z,67.83
2019-01-29T18:04:27.568Z,74.90
2019-01-29T18:06:57.964Z,79.97
2019-01-29T18:09:28.842Z,105.30
2019-01-29T18:11:59.461Z,107.67
2019-01-29T18:14:32.440Z,100.60
2019-01-29T18:17:02.846Z,89.47
2019-01-29T18:19:33.090Z,94.77
2019-01-29T18:22:04.526Z,96.23
2019-01-29T18:24:35.700Z,96.67
2019-01-29T18:27:08.049Z,96.23
2019-01-29T18:29:38.312Z,103.30
2019-01-29T18:32:09.734Z,113.23
2019-01-29T18:34:41.354Z,128.80
2019-01-29T18:37:11.716Z,127.73
2019-01-29T18:39:43.177Z,119.27
2019-01-29T18:42:16.225Z,131.67
2019-01-29T18:44:46.478Z,174.40
2019-01-29T18:47:16.938Z,171.83
2019-01-29T18:49:51.245Z,163.83
2019-01-29T18:52:22.973Z,182.07
2019-01-29T18:54:53.423Z,162.53
2019-01-29T18:57:23.941Z,148.37
2019-01-29T18:59:56.626Z,166.10
2019-01-29T19:02:27.145Z,120.90
2019-01-29T19:04:58.626Z,99.10
2019-01-29T19:07:30.056Z,101.53
2019-01-29T19:10:04.480Z,105.23
2019-01-29T19:12:34.791Z,103.47
2019-01-29T19:15:08.370Z,92.17
2019-01-29T19:17:40.879Z,120.33
2019-01-29T19:20:14.159Z,66.40
2019-01-29T19:22:44.868Z,96.37
2019-01-29T19:25:16.496Z,101.23
2019-01-29T19:27:46.915Z,85.87
2019-01-29T19:30:19.988Z,107.57
2019-01-29T19:32:50.099Z,135.10
2019-01-29T19:35:23.114Z,120.90
2019-01-29T19:37:54.526Z,107.23
2019-01-29T19:40:24.800Z,95.97
2019-01-29T19:42:56.190Z,86.53
2019-01-29T19:45:32.481Z,70.90
2019-01-29T19:48:06.891Z,79.97
2019-01-29T19:50:38.842Z,71.37
2019-01-29T19:53:09.148Z,63.17
2019-01-29T19:55:42.238Z,57.17
2019-01-29T19:58:12.601Z,53.17
2019-01-29T20:00:43.262Z,48.07
2019-01-29T20:03:15.884Z,52.80
2019-01-29T20:05:48.483Z,44.77
2019-01-29T20:08:18.707Z,42.87
2019-01-29T20:10:50.368Z,53.30
2019-01-29T20:13:22.329Z,57.37
2019-01-29T20:15:58.416Z,61.07
2019-01-29T20:18:28.983Z,61.73
2019-01-29T20:21:00.974Z,72.03
2019-01-29T20:23:31.692Z,40.53
2019-01-29T20:26:03.482Z,37.20
2019-01-29T20:28:42.176Z,35.47
2019-01-29T20:31:05.890Z,31.27
2019-01-29T20:33:40.762Z,37.73
2019-01-29T20:36:11.141Z,41.07
2019-01-29T20:38:43.830Z,45.03
2019-01-29T20:41:14.322Z,69.87
2019-01-29T20:43:44.598Z,76.90
2019-01-29T20:46:15.462Z,58.90
2019-01-29T20:48:46.715Z,52.43
2019-01-29T20:51:17.084Z,53.83
2019-01-29T20:53:48.741Z,54.03
2019-01-29T20:56:20.886Z,56.47
2019-01-29T20:58:53.129Z,51.80
2019-01-29T21:01:24.160Z,54.07
2019-01-29T21:03:54.930Z,49.93
2019-01-29T21:06:26.474Z,36.07
2019-01-29T21:08:58.161Z,41.67
2019-01-29T21:11:32.541Z,52.63
2019-01-29T21:14:04.444Z,55.73
2019-01-29T21:16:35.951Z,54.77
2019-01-29T21:19:06.432Z,45.00
2019-01-29T21:21:39.407Z,35.73
2019-01-29T21:24:10.870Z,38.70
2019-01-29T21:26:41.511Z,40.97
2019-01-29T21:29:12.853Z,39.77
2019-01-29T21:31:45.341Z,46.27
2019-01-29T21:34:15.757Z,40.03
2019-01-29T21:36:48.694Z,42.13
2019-01-29T21:39:18.978Z,34.63
2019-01-29T21:41:50.389Z,38.90
2019-01-29T21:44:20.916Z,34.60
2019-01-29T21:46:51.190Z,32.53
2019-01-29T21:49:21.726Z,34.47
2019-01-29T21:51:54.683Z,42.07
2019-01-29T21:54:26.093Z,52.67
2019-01-29T21:56:56.339Z,50.67
2019-01-29T21:59:28.215Z,36.27
2019-01-29T22:01:58.632Z,34.33
2019-01-29T22:04:33.788Z,29.90
2019-01-29T22:07:06.746Z,29.63
2019-01-29T22:09:43.586Z,30.60
2019-01-29T22:12:15.023Z,33.57
2019-01-29T22:14:45.384Z,29.87
2019-01-29T22:17:15.926Z,32.80
2019-01-29T22:19:47.767Z,33.07
2019-01-29T22:22:18.241Z,30.93
2019-01-29T22:24:49.657Z,32.97
2019-01-29T22:27:25.526Z,39.70
2019-01-29T22:29:57.490Z,41.87
2019-01-29T22:32:30.607Z,38.73
2019-01-29T22:35:00.843Z,38.37
2019-01-29T22:37:31.087Z,34.40
2019-01-29T22:40:01.315Z,32.77
2019-01-29T22:42:31.730Z,30.20
2019-01-29T22:45:02.012Z,30.27
2019-01-29T22:47:32.425Z,32.33
2019-01-29T22:50:02.631Z,32.60
2019-01-29T22:52:32.944Z,26.80
2019-01-29T22:55:07.753Z,25.00
2019-01-29T22:57:37.981Z,23.40
2019-01-29T23:00:49.402Z,33.13
2019-01-29T23:03:42.042Z,24.30
2019-01-29T23:06:15.514Z,28.93
2019-01-29T23:08:45.760Z,32.67
2019-01-29T23:11:15.992Z,29.50
2019-01-29T23:13:47.145Z,31.67
2019-01-29T23:16:17.352Z,31.03
2019-01-29T23:18:48.373Z,28.90
2019-01-29T23:21:18.602Z,28.40
2019-01-29T23:23:48.829Z,30.70
2019-01-29T23:26:19.207Z,30.03
2019-01-29T23:28:49.432Z,29.97
2019-01-29T23:31:19.662Z,25.37
2019-01-29T23:33:49.930Z,23.17
2019-01-29T23:36:20.147Z,23.73
2019-01-29T23:38:50.567Z,26.07
2019-01-29T23:41:20.786Z,27.87
2019-01-29T23:43:51.015Z,31.47
2019-01-29T23:46:22.492Z,28.10
2019-01-29T23:48:52.735Z,28.10
2019-01-29T23:51:24.210Z,28.90
2019-01-29T23:53:54.432Z,24.23
2019-01-29T23:56:26.108Z,27.20
2019-01-29T23:58:56.341Z,29.80
